Time;durP1;ratioP1;P1;durP2;ratioP2;P2;SDS_P1;SDS_P2;PMS_P1;PMS_P2;Temp;Humidity;BMP_temperature;BMP_pressure;BME280_temperature;BME280_humidity;BME280_pressure;Samples;Min_cycle;Max_cycle;Signal;HPM_P1;HPM_P2
2023/05/14 00:00:55;;;;;;;;;;;;;;;12.11;49.51;100293.75;4985137;28;19972;-75
2023/05/14 00:03:22;;;;;;;;;;;;;;;12.11;49.63;100293.75;4986410;28;19929;-74
2023/05/14 00:05:48;;;;;;;;;;;;;;;12.05;49.70;100301.97;4984592;28;19926;-75
2023/05/14 00:08:14;;;;;;;;;;;;;;;12.01;49.61;100300.84;4976111;28;19937;-74
2023/05/14 00:10:40;;;;;;;;;;;;;;;11.96;49.86;100300.81;4984907;28;19926;-75
2023/05/14 00:13:06;;;;;;;;;;;;;;;11.90;50.08;100297.25;4974706;28;19953;-75
2023/05/14 00:15:32;;;;;;;;;;;;;;;11.84;50.48;100302.97;5001720;28;20440;-75
2023/05/14 00:17:58;;;;;;;;;;;;;;;11.75;50.67;100302.69;4983299;28;19961;-75
2023/05/14 00:20:25;;;;;;;;;;;;;;;11.68;50.88;100302.13;4989969;28;19935;-74
2023/05/14 00:22:52;;;;;;;;;;;;;;;11.61;51.00;100300.47;4989654;28;19929;-75
2023/05/14 00:25:18;;;;;;;;;;;;;;;11.62;51.11;100304.84;4969762;28;19933;-75
2023/05/14 00:27:44;;;;;;;;;;;;;;;11.56;51.43;100305.94;4968813;28;19925;-74
2023/05/14 00:30:10;;;;;;;;;;;;;;;11.56;51.77;100305.13;4969699;28;19948;-75
2023/05/14 00:32:36;;;;;;;;;;;;;;;11.54;51.68;100310.03;4975611;28;20471;-75
2023/05/14 00:35:03;;;;;;;;;;;;;;;11.46;51.66;100303.16;5006792;28;20020;-75
2023/05/14 00:37:30;;;;;;;;;;;;;;;11.48;51.90;100303.72;4960260;28;20016;-75
2023/05/14 00:39:56;;;;;;;;;;;;;;;11.43;52.09;100309.16;4983610;28;19932;-74
2023/05/14 00:42:22;;;;;;;;;;;;;;;11.43;52.20;100307.28;4983566;28;20400;-75
2023/05/14 00:44:48;;;;;;;;;;;;;;;11.39;52.28;100306.13;4984683;28;19932;-75
2023/05/14 00:47:14;;;;;;;;;;;;;;;11.37;52.21;100304.78;4953595;28;20573;-75
2023/05/14 00:49:40;;;;;;;;;;;;;;;11.29;52.48;100303.38;4983514;28;19933;-75
2023/05/14 00:52:07;;;;;;;;;;;;;;;11.22;52.64;100303.63;5001295;28;19960;-75
2023/05/14 00:54:35;;;;;;;;;;;;;;;11.24;52.95;100308.81;5001699;28;19953;-75
2023/05/14 00:57:02;;;;;;;;;;;;;;;11.23;52.80;100299.78;4993552;28;20524;-76
2023/05/14 00:59:28;;;;;;;;;;;;;;;11.18;53.06;100305.25;4994192;28;19926;-75
2023/05/14 01:01:54;;;;;;;;;;;;;;;11.24;53.20;100306.06;4973867;28;19926;-75
2023/05/14 01:04:20;;;;;;;;;;;;;;;11.31;52.93;100307.47;4984267;28;20280;-74
2023/05/14 01:06:52;;;;;;;;;;;;;;;11.31;53.00;100312.94;4987514;28;19925;-75
2023/05/14 01:09:28;;;;;;;;;;;;;;;11.27;52.84;100309.09;4987311;28;19980;-75
2023/05/14 01:12:00;;;;;;;;;;;;;;;11.29;53.08;100315.13;4991675;28;19933;-75
2023/05/14 01:14:31;;;;;;;;;;;;;;;11.30;53.10;100310.50;4952120;28;19929;-75
2023/05/14 01:16:58;;;;;;;;;;;;;;;11.28;53.07;100313.50;4998728;28;19926;-75
2023/05/14 01:19:28;;;;;;;;;;;;;;;11.23;53.25;100316.22;4982273;28;20028;-75
2023/05/14 01:21:55;;;;;;;;;;;;;;;11.17;53.39;100328.25;4983056;28;20028;-75
2023/05/14 01:24:21;;;;;;;;;;;;;;;11.05;53.76;100323.78;5013194;28;19932;-75
2023/05/14 01:26:48;;;;;;;;;;;;;;;11.05;53.77;100328.44;4997074;28;20483;-75
2023/05/14 01:29:18;;;;;;;;;;;;;;;11.02;53.88;100321.59;5002294;28;19925;-75
2023/05/14 01:31:46;;;;;;;;;;;;;;;11.07;53.92;100323.50;4974209;28;20139;-75
2023/05/14 01:34:13;;;;;;;;;;;;;;;11.09;53.96;100323.25;4971724;28;19926;-75
2023/05/14 01:36:40;;;;;;;;;;;;;;;11.05;53.98;100332.00;4970921;28;20028;-74
2023/05/14 01:39:10;;;;;;;;;;;;;;;11.03;54.24;100336.91;4983357;28;19926;-75
2023/05/14 01:41:38;;;;;;;;;;;;;;;11.08;54.20;100336.09;4981800;28;20367;-74
2023/05/14 01:44:04;;;;;;;;;;;;;;;11.12;54.50;100342.72;4982104;28;19932;-74
2023/05/14 01:46:30;;;;;;;;;;;;;;;11.11;54.28;100348.44;4983440;28;19926;-74
2023/05/14 01:48:57;;;;;;;;;;;;;;;11.13;54.44;100349.84;5001791;28;19932;-74
2023/05/14 01:51:23;;;;;;;;;;;;;;;11.11;54.23;100342.97;4986751;28;20036;-74
2023/05/14 01:53:48;;;;;;;;;;;;;;;11.10;54.46;100355.00;4966761;28;19925;-75
2023/05/14 01:56:16;;;;;;;;;;;;;;;11.09;54.62;100356.09;5000627;28;20041;-75
2023/05/14 01:58:42;;;;;;;;;;;;;;;11.13;54.49;100349.00;4986572;28;19933;-75
2023/05/14 02:01:08;;;;;;;;;;;;;;;11.10;54.68;100355.00;4983506;28;19972;-74
2023/05/14 02:03:34;;;;;;;;;;;;;;;11.11;54.80;100351.19;4986845;28;20439;-75
2023/05/14 02:06:00;;;;;;;;;;;;;;;11.05;54.69;100347.59;4967010;28;19926;-74
2023/05/14 02:08:26;;;;;;;;;;;;;;;11.14;54.81;100362.41;4970087;28;20471;-75
2023/05/14 02:10:52;;;;;;;;;;;;;;;11.16;54.79;100354.78;4985203;28;19961;-75
2023/05/14 02:13:20;;;;;;;;;;;;;;;11.16;54.84;100357.50;4982771;28;19964;-74
2023/05/14 02:15:45;;;;;;;;;;;;;;;11.20;54.81;100357.81;4979200;28;19952;-75
2023/05/14 02:18:11;;;;;;;;;;;;;;;11.23;54.62;100361.91;4974274;28;20317;-74
2023/05/14 02:20:37;;;;;;;;;;;;;;;11.21;54.51;100368.47;4953665;28;20397;-75
2023/05/14 02:23:03;;;;;;;;;;;;;;;11.21;54.77;100362.19;4992936;28;20446;-75
2023/05/14 02:25:32;;;;;;;;;;;;;;;11.24;54.83;100369.88;5003355;28;19929;-74
2023/05/14 02:27:58;;;;;;;;;;;;;;;11.21;54.70;100363.00;4984884;28;20392;-75
2023/05/14 02:30:25;;;;;;;;;;;;;;;11.21;54.78;100371.22;4984655;28;19980;-75
2023/05/14 02:32:52;;;;;;;;;;;;;;;11.24;54.69;100372.59;4984111;28;20082;-75
2023/05/14 02:35:18;;;;;;;;;;;;;;;11.20;54.58;100374.22;4985955;28;19976;-75
2023/05/14 02:37:44;;;;;;;;;;;;;;;11.20;54.76;100374.22;4975791;28;19926;-75
2023/05/14 02:40:10;;;;;;;;;;;;;;;11.24;54.55;100375.34;4999300;28;20238;-75
2023/05/14 02:42:36;;;;;;;;;;;;;;;11.18;54.70;100379.16;4983431;28;20007;-75
2023/05/14 02:45:02;;;;;;;;;;;;;;;11.14;54.68;100378.00;4984258;28;19926;-75
2023/05/14 02:47:31;;;;;;;;;;;;;;;11.12;54.96;100380.19;4980414;28;19929;-74
2023/05/14 02:49:57;;;;;;;;;;;;;;;11.14;54.87;100376.09;4979000;28;19929;-74
2023/05/14 02:52:23;;;;;;;;;;;;;;;11.15;54.76;100385.13;4976933;28;20032;-74
2023/05/14 02:54:49;;;;;;;;;;;;;;;11.16;54.74;100387.63;4984240;28;19933;-74
2023/05/14 02:57:15;;;;;;;;;;;;;;;11.14;54.86;100392.53;4967502;28;20235;-74
2023/05/14 02:59:41;;;;;;;;;;;;;;;11.13;54.87;100384.56;4981034;28;19925;-74
2023/05/14 03:02:07;;;;;;;;;;;;;;;11.16;54.99;100387.63;4983298;28;20015;-75
2023/05/14 03:04:34;;;;;;;;;;;;;;;11.19;54.81;100392.56;4982347;28;19930;-75
2023/05/14 03:07:00;;;;;;;;;;;;;;;11.21;54.60;100387.63;4982896;28;19995;-76
2023/05/14 03:09:27;;;;;;;;;;;;;;;11.26;54.57;100391.50;4976711;28;20381;-75
2023/05/14 03:11:52;;;;;;;;;;;;;;;11.29;54.46;100385.50;4979286;28;20056;-74
2023/05/14 03:14:18;;;;;;;;;;;;;;;11.33;54.33;100403.03;4985252;28;20389;-75
2023/05/14 03:16:44;;;;;;;;;;;;;;;11.36;54.17;100397.03;4983526;28;19980;-75
2023/05/14 03:19:11;;;;;;;;;;;;;;;11.41;54.17;100393.50;4982504;28;19925;-75
2023/05/14 03:21:38;;;;;;;;;;;;;;;11.46;54.15;100396.25;4971901;28;19932;-76
2023/05/14 03:24:04;;;;;;;;;;;;;;;11.53;54.14;100396.00;4984592;28;19933;-75
2023/05/14 03:26:30;;;;;;;;;;;;;;;11.62;54.02;100408.13;4982978;28;20004;-75
2023/05/14 03:28:56;;;;;;;;;;;;;;;11.69;53.71;100394.19;4984787;28;20397;-75
2023/05/14 03:31:22;;;;;;;;;;;;;;;11.69;53.54;100405.94;4974958;28;19925;-75
2023/05/14 03:33:48;;;;;;;;;;;;;;;11.70;53.51;100401.31;4984595;28;19925;-75
2023/05/14 03:36:14;;;;;;;;;;;;;;;11.70;53.44;100401.31;4992797;28;20308;-75
2023/05/14 03:38:44;;;;;;;;;;;;;;;11.71;53.40;100398.31;4987837;28;19981;-75
2023/05/14 03:41:14;;;;;;;;;;;;;;;11.74;53.26;100400.50;4981230;28;19926;-75
2023/05/14 03:43:43;;;;;;;;;;;;;;;11.75;53.07;100404.88;4983718;28;19926;-75
2023/05/14 03:46:09;;;;;;;;;;;;;;;11.76;52.84;100409.28;4966131;28;19926;-75
2023/05/14 03:48:35;;;;;;;;;;;;;;;11.81;52.76;100404.91;4983815;28;19948;-75
2023/05/14 03:51:03;;;;;;;;;;;;;;;11.84;52.68;100413.41;4981925;28;19926;-75
2023/05/14 03:53:29;;;;;;;;;;;;;;;11.81;52.70;100394.78;4970185;28;19979;-75
2023/05/14 03:55:56;;;;;;;;;;;;;;;11.90;52.66;100414.25;4995602;28;19932;-75
2023/05/14 03:58:22;;;;;;;;;;;;;;;11.97;52.72;100412.06;4982563;28;20024;-74
2023/05/14 04:00:48;;;;;;;;;;;;;;;12.00;52.45;100416.19;4981195;28;20025;-74
2023/05/14 04:03:14;;;;;;;;;;;;;;;12.02;52.31;100423.09;4976688;28;19948;-74
2023/05/14 04:05:40;;;;;;;;;;;;;;;12.06;52.22;100417.88;4984641;28;19925;-75
2023/05/14 04:08:06;;;;;;;;;;;;;;;12.12;52.01;100416.81;4965556;28;19969;-75
2023/05/14 04:10:33;;;;;;;;;;;;;;;12.22;51.96;100420.66;4964011;28;19968;-75
2023/05/14 04:13:01;;;;;;;;;;;;;;;12.29;51.94;100424.81;4985392;28;19976;-76
2023/05/14 04:15:31;;;;;;;;;;;;;;;12.33;51.65;100419.59;4966714;28;20438;-75
2023/05/14 04:17:58;;;;;;;;;;;;;;;12.34;51.67;100424.00;4983184;28;19926;-76
2023/05/14 04:20:24;;;;;;;;;;;;;;;12.37;51.64;100426.19;4985339;28;19932;-76
2023/05/14 04:22:51;;;;;;;;;;;;;;;12.41;51.58;100427.31;4963274;28;19925;-75
2023/05/14 04:25:17;;;;;;;;;;;;;;;12.43;51.40;100421.53;4977711;28;19929;-76
2023/05/14 04:27:43;;;;;;;;;;;;;;;12.47;51.33;100426.22;4982869;28;19926;-76
2023/05/14 04:30:11;;;;;;;;;;;;;;;12.54;51.27;100428.69;4992013;28;19925;-76
2023/05/14 04:32:38;;;;;;;;;;;;;;;12.69;50.84;100424.31;4991695;28;20477;-77
2023/05/14 04:35:04;;;;;;;;;;;;;;;12.98;50.11;100427.31;4982178;28;20025;-76
2023/05/14 04:37:30;;;;;;;;;;;;;;;13.21;49.59;100421.53;4981877;28;19947;-76
2023/05/14 04:39:57;;;;;;;;;;;;;;;13.34;49.16;100431.94;4965167;28;20282;-76
2023/05/14 04:42:24;;;;;;;;;;;;;;;13.40;49.19;100430.81;4986467;28;19929;-75
2023/05/14 04:44:50;;;;;;;;;;;;;;;13.58;49.00;100429.44;4985962;28;19929;-75
2023/05/14 04:47:18;;;;;;;;;;;;;;;13.74;48.36;100423.88;4986040;28;20389;-75
2023/05/14 04:49:44;;;;;;;;;;;;;;;13.75;48.47;100429.09;4985517;28;19926;-75
2023/05/14 04:52:10;;;;;;;;;;;;;;;13.68;48.66;100431.31;4987568;28;19937;-75
2023/05/14 04:54:36;;;;;;;;;;;;;;;13.77;48.56;100430.75;4986234;28;19925;-75
2023/05/14 04:57:02;;;;;;;;;;;;;;;13.79;48.37;100434.03;4984546;28;20416;-75
2023/05/14 04:59:28;;;;;;;;;;;;;;;13.69;48.61;100432.97;4983112;28;19926;-75
2023/05/14 05:01:54;;;;;;;;;;;;;;;13.64;48.50;100437.66;4965284;28;19925;-76
2023/05/14 05:04:22;;;;;;;;;;;;;;;13.68;48.60;100438.75;5006020;28;20304;-75
2023/05/14 05:06:49;;;;;;;;;;;;;;;13.79;48.52;100436.78;4989382;28;20019;-75
2023/05/14 05:09:15;;;;;;;;;;;;;;;13.99;48.22;100438.63;5002455;28;20301;-74
2023/05/14 05:11:41;;;;;;;;;;;;;;;14.29;47.55;100429.38;4980182;28;19925;-75
2023/05/14 05:14:07;;;;;;;;;;;;;;;14.56;46.77;100439.13;4994297;28;20024;-75
2023/05/14 05:16:34;;;;;;;;;;;;;;;14.63;46.67;100435.19;4986110;28;19933;-77
2023/05/14 05:19:00;;;;;;;;;;;;;;;14.59;46.49;100429.44;4985676;28;20024;-75
2023/05/14 05:21:27;;;;;;;;;;;;;;;14.45;46.56;100432.03;4985412;28;19930;-75
2023/05/14 05:23:53;;;;;;;;;;;;;;;14.28;47.02;100435.97;4999192;28;20027;-75
2023/05/14 05:26:21;;;;;;;;;;;;;;;14.21;46.84;100426.41;4983173;28;20016;-75
2023/05/14 05:28:47;;;;;;;;;;;;;;;14.13;46.97;100428.66;4984350;28;19926;-76
2023/05/14 05:31:12;;;;;;;;;;;;;;;14.22;46.50;100433.53;4980232;28;20047;-76
2023/05/14 05:33:38;;;;;;;;;;;;;;;14.30;46.15;100432.97;4969461;28;20037;-75
2023/05/14 05:36:04;;;;;;;;;;;;;;;14.34;45.96;100434.03;4982504;28;19929;-75
2023/05/14 05:38:32;;;;;;;;;;;;;;;14.31;45.88;100432.66;4966248;28;20146;-75
2023/05/14 05:40:58;;;;;;;;;;;;;;;14.28;45.85;100432.41;4984454;28;19980;-75
2023/05/14 05:43:23;;;;;;;;;;;;;;;14.27;45.62;100419.75;4980884;28;19925;-77
2023/05/14 05:45:49;;;;;;;;;;;;;;;14.24;45.40;100423.91;4987286;28;19949;-76
2023/05/14 05:48:15;;;;;;;;;;;;;;;14.23;45.54;100426.94;4983977;28;20048;-74
2023/05/14 05:50:43;;;;;;;;;;;;;;;14.21;45.40;100426.41;4985099;28;20310;-75
2023/05/14 05:53:09;;;;;;;;;;;;;;;14.21;45.24;100413.50;4981906;28;20133;-75
2023/05/14 05:55:37;;;;;;;;;;;;;;;14.26;44.98;100416.19;4968423;28;19947;-74
2023/05/14 05:58:03;;;;;;;;;;;;;;;14.35;44.86;100416.41;4978806;28;19984;-75
2023/05/14 06:00:30;;;;;;;;;;;;;;;14.43;44.96;100418.53;4989942;28;19941;-75
2023/05/14 06:02:56;;;;;;;;;;;;;;;14.51;44.43;100408.06;5004915;28;20237;-74
2023/05/14 06:05:22;;;;;;;;;;;;;;;14.58;43.75;100411.28;5000782;28;19961;-75
2023/05/14 06:07:48;;;;;;;;;;;;;;;14.71;43.13;100407.09;4998959;28;19925;-75
2023/05/14 06:10:14;;;;;;;;;;;;;;;14.89;41.89;100409.16;4960305;28;20447;-75
2023/05/14 06:12:41;;;;;;;;;;;;;;;15.01;41.41;100411.50;4984479;28;19926;-76
2023/05/14 06:15:08;;;;;;;;;;;;;;;15.17;41.24;100414.94;4983076;28;19993;-76
2023/05/14 06:17:33;;;;;;;;;;;;;;;15.41;40.89;100414.13;4982941;28;19925;-77
2023/05/14 06:19:59;;;;;;;;;;;;;;;15.65;40.38;100413.31;4975247;28;19930;-77
2023/05/14 06:22:25;;;;;;;;;;;;;;;15.88;40.09;100414.41;4967713;28;19926;-76
2023/05/14 06:24:51;;;;;;;;;;;;;;;16.05;39.75;100412.28;4962815;28;19969;-78
2023/05/14 06:27:17;;;;;;;;;;;;;;;16.11;39.52;100402.84;4974082;28;20008;-77
2023/05/14 06:29:44;;;;;;;;;;;;;;;16.21;39.10;100397.16;4949121;28;20460;-77
2023/05/14 06:32:14;;;;;;;;;;;;;;;16.19;39.04;100404.13;4983512;28;19930;-76
2023/05/14 06:34:39;;;;;;;;;;;;;;;16.31;38.45;100401.72;4981766;28;19926;-76
2023/05/14 06:37:05;;;;;;;;;;;;;;;16.49;38.08;100408.34;4983506;28;20535;-78
2023/05/14 06:39:33;;;;;;;;;;;;;;;16.70;37.62;100397.78;4984062;28;20032;-77
2023/05/14 06:41:59;;;;;;;;;;;;;;;16.57;37.21;100401.31;4963369;28;20028;-74
2023/05/14 06:44:25;;;;;;;;;;;;;;;16.70;36.77;100405.25;4983611;28;19925;-76
2023/05/14 06:46:52;;;;;;;;;;;;;;;16.84;36.23;100403.34;4982808;28;19925;-75
2023/05/14 06:49:18;;;;;;;;;;;;;;;16.52;36.55;100393.94;4999780;28;19929;-75
2023/05/14 06:51:44;;;;;;;;;;;;;;;16.36;36.63;100403.56;4973318;28;19951;-75
2023/05/14 06:54:10;;;;;;;;;;;;;;;16.26;36.35;100401.78;4993545;28;19925;-75
2023/05/14 06:56:36;;;;;;;;;;;;;;;16.19;36.49;100404.13;4963810;28;20317;-75
2023/05/14 06:59:02;;;;;;;;;;;;;;;16.46;36.14;100408.94;4978702;28;19925;-75
2023/05/14 07:01:28;;;;;;;;;;;;;;;16.58;35.99;100400.19;4999962;28;20016;-75
2023/05/14 07:03:55;;;;;;;;;;;;;;;16.53;36.24;100408.56;4982550;28;19933;-75
2023/05/14 07:06:21;;;;;;;;;;;;;;;16.45;36.39;100410.88;4981987;28;19972;-75
2023/05/14 07:08:47;;;;;;;;;;;;;;;16.84;35.78;100414.38;4980937;28;19926;-75
2023/05/14 07:11:13;;;;;;;;;;;;;;;17.19;35.90;100411.34;4980929;28;19940;-75
2023/05/14 07:13:40;;;;;;;;;;;;;;;17.42;35.60;100411.47;4676191;28;9999785;-75
2023/05/14 07:16:07;;;;;;;;;;;;;;;17.42;35.48;100417.81;4952002;28;19968;-75
2023/05/14 07:18:33;;;;;;;;;;;;;;;17.35;35.52;100416.56;4988686;28;19931;-75
2023/05/14 07:21:01;;;;;;;;;;;;;;;17.26;35.67;100413.69;4969894;28;19925;-75
2023/05/14 07:23:26;;;;;;;;;;;;;;;17.12;35.97;100413.69;4987546;28;19926;-75
2023/05/14 07:25:52;;;;;;;;;;;;;;;16.94;35.81;100418.09;4983159;28;19935;-77
2023/05/14 07:28:18;;;;;;;;;;;;;;;16.78;36.00;100429.41;4984453;28;19933;-76
2023/05/14 07:30:44;;;;;;;;;;;;;;;16.76;35.99;100428.91;4985093;28;19988;-77
2023/05/14 07:33:10;;;;;;;;;;;;;;;16.82;36.04;100427.69;4978699;28;19936;-77
2023/05/14 07:35:36;;;;;;;;;;;;;;;16.91;35.79;100430.56;4977058;28;19926;-76
2023/05/14 07:38:04;;;;;;;;;;;;;;;16.94;35.75;100437.44;4982756;28;19925;-75
2023/05/14 07:40:30;;;;;;;;;;;;;;;16.93;35.51;100441.34;4964194;28;19926;-75
2023/05/14 07:42:56;;;;;;;;;;;;;;;17.00;35.52;100439.84;4988196;28;19925;-75
2023/05/14 07:45:22;;;;;;;;;;;;;;;17.08;35.59;100446.63;4979463;28;19933;-75
2023/05/14 07:47:50;;;;;;;;;;;;;;;17.09;35.36;100437.22;4983168;28;19926;-75
2023/05/14 07:50:17;;;;;;;;;;;;;;;17.10;35.26;100432.53;4991161;28;19955;-75
2023/05/14 07:52:43;;;;;;;;;;;;;;;17.18;34.91;100437.31;4982128;28;19929;-75
2023/05/14 07:55:13;;;;;;;;;;;;;;;17.26;34.73;100433.03;4986586;28;19932;-75
2023/05/14 07:57:39;;;;;;;;;;;;;;;17.38;34.14;100436.13;4980782;28;19972;-75
2023/05/14 08:00:08;;;;;;;;;;;;;;;17.48;34.22;100443.41;4991244;28;19929;-75
2023/05/14 08:02:41;;;;;;;;;;;;;;;17.48;34.53;100439.81;4988621;28;19925;-77
2023/05/14 08:05:07;;;;;;;;;;;;;;;17.62;34.48;100443.41;4984661;28;19929;-77
2023/05/14 08:07:33;;;;;;;;;;;;;;;17.83;33.93;100443.00;4954690;28;20416;-78
2023/05/14 08:09:59;;;;;;;;;;;;;;;18.07;33.81;100448.34;4986640;28;19985;-76
2023/05/14 08:12:28;;;;;;;;;;;;;;;18.41;33.22;100447.03;4976911;28;19976;-75
2023/05/14 08:14:55;;;;;;;;;;;;;;;18.40;33.15;100439.03;4993468;28;19936;-74
2023/05/14 08:17:20;;;;;;;;;;;;;;;18.05;33.84;100442.31;4990437;28;20385;-74
2023/05/14 08:19:46;;;;;;;;;;;;;;;17.79;34.08;100445.56;4993718;28;19925;-75
2023/05/14 08:22:12;;;;;;;;;;;;;;;17.64;34.47;100443.09;4993749;28;19926;-74
2023/05/14 08:24:38;;;;;;;;;;;;;;;17.57;34.77;100447.13;4995203;28;19926;-77
2023/05/14 08:27:04;;;;;;;;;;;;;;;17.67;34.59;100440.56;4992954;28;20320;-75
2023/05/14 08:29:31;;;;;;;;;;;;;;;17.88;34.04;100442.91;4980012;28;19979;-74
2023/05/14 08:31:57;;;;;;;;;;;;;;;18.14;33.57;100445.16;4994598;28;19932;-75
2023/05/14 08:34:26;;;;;;;;;;;;;;;18.39;33.21;100448.47;4989697;28;19930;-75
2023/05/14 08:36:52;;;;;;;;;;;;;;;18.42;32.86;100442.31;4976417;28;20468;-75
2023/05/14 08:39:18;;;;;;;;;;;;;;;18.46;32.76;100442.50;4992895;28;20061;-76
2023/05/14 08:41:44;;;;;;;;;;;;;;;19.10;32.28;100442.34;4994001;28;19931;-75
2023/05/14 08:44:11;;;;;;;;;;;;;;;20.54;30.25;100439.34;4988816;28;19926;-76
2023/05/14 08:46:39;;;;;;;;;;;;;;;22.14;27.52;100434.91;4992766;28;20404;-77
2023/05/14 08:49:10;;;;;;;;;;;;;;;23.07;26.03;100427.59;4988135;28;20322;-77
2023/05/14 08:51:36;;;;;;;;;;;;;;;23.44;24.42;100430.44;4988853;28;20425;-77
2023/05/14 08:54:02;;;;;;;;;;;;;;;22.41;25.37;100435.53;4992786;28;20976;-77
2023/05/14 08:56:31;;;;;;;;;;;;;;;21.83;26.82;100422.16;4983513;28;19968;-77
2023/05/14 08:58:57;;;;;;;;;;;;;;;21.10;27.97;100432.28;5004904;28;19932;-78
2023/05/14 09:01:23;;;;;;;;;;;;;;;20.20;28.95;100438.19;4981921;28;20048;-77
2023/05/14 09:03:50;;;;;;;;;;;;;;;19.47;30.24;100435.84;4965627;28;19933;-77
2023/05/14 09:06:17;;;;;;;;;;;;;;;18.91;30.82;100427.88;4991165;28;20380;-77
2023/05/14 09:08:44;;;;;;;;;;;;;;;18.58;31.10;100428.13;4992556;28;20381;-75
2023/05/14 09:11:11;;;;;;;;;;;;;;;18.54;31.10;100434.25;4969388;28;19932;-75
2023/05/14 09:13:37;;;;;;;;;;;;;;;18.62;30.94;100434.66;4975218;28;19945;-76
2023/05/14 09:16:03;;;;;;;;;;;;;;;18.99;30.32;100427.94;4992383;28;19933;-77
2023/05/14 09:18:29;;;;;;;;;;;;;;;21.16;27.95;100432.91;4993333;28;19936;-75
2023/05/14 09:20:56;;;;;;;;;;;;;;;23.37;25.32;100427.44;4984951;28;20431;-75
2023/05/14 09:23:24;;;;;;;;;;;;;;;23.44;24.70;100424.88;4989166;28;19961;-75
2023/05/14 09:25:50;;;;;;;;;;;;;;;22.41;25.84;100415.25;4978162;28;20808;-75
2023/05/14 09:28:16;;;;;;;;;;;;;;;21.12;27.61;100421.63;4988832;28;19961;-75
2023/05/14 09:30:45;;;;;;;;;;;;;;;20.10;29.27;100433.78;4985364;28;19925;-76
2023/05/14 09:33:11;;;;;;;;;;;;;;;19.40;30.26;100422.44;4989361;28;20012;-76
2023/05/14 09:35:40;;;;;;;;;;;;;;;18.92;31.33;100424.75;4975829;28;20016;-76
2023/05/14 09:38:08;;;;;;;;;;;;;;;18.51;31.83;100429.34;4979730;28;20030;-76
2023/05/14 09:40:33;;;;;;;;;;;;;;;18.22;32.44;100425.03;4997436;28;19929;-76
2023/05/14 09:43:00;;;;;;;;;;;;;;;18.11;32.73;100431.94;4990322;28;19925;-76
2023/05/14 09:45:26;;;;;;;;;;;;;;;18.10;32.58;100430.28;5000615;28;19940;-76
2023/05/14 09:47:52;;;;;;;;;;;;;;;18.25;32.43;100429.94;4991035;28;19934;-75
2023/05/14 09:50:18;;;;;;;;;;;;;;;18.42;31.97;100426.53;4985345;28;19929;-75
2023/05/14 09:52:44;;;;;;;;;;;;;;;18.73;31.52;100422.19;4986656;28;19964;-75
2023/05/14 09:55:12;;;;;;;;;;;;;;;19.07;31.08;100428.31;4981199;28;20384;-76
2023/05/14 09:57:38;;;;;;;;;;;;;;;19.42;30.32;100420.97;4991680;28;19926;-76
2023/05/14 10:00:04;;;;;;;;;;;;;;;20.19;29.72;100428.22;4986923;28;20301;-77
2023/05/14 10:02:36;;;;;;;;;;;;;;;20.94;28.69;100415.31;4987010;28;19941;-76
2023/05/14 10:05:03;;;;;;;;;;;;;;;21.10;28.42;100418.38;4988832;28;19988;-77
2023/05/14 10:07:32;;;;;;;;;;;;;;;20.74;28.77;100423.16;4984242;28;19926;-76
2023/05/14 10:10:00;;;;;;;;;;;;;;;20.22;29.55;100418.44;4996651;28;19926;-77
2023/05/14 10:12:29;;;;;;;;;;;;;;;20.01;29.94;100410.72;4967865;28;19932;-75
2023/05/14 10:14:56;;;;;;;;;;;;;;;20.09;29.82;100412.72;4970452;28;19925;-75
2023/05/14 10:17:25;;;;;;;;;;;;;;;20.03;28.98;100415.97;4993486;28;20008;-75
2023/05/14 10:19:52;;;;;;;;;;;;;;;19.68;28.46;100419.44;4991456;28;19926;-75
2023/05/14 10:22:21;;;;;;;;;;;;;;;19.46;29.12;100415.63;4967449;28;19926;-75
2023/05/14 10:24:49;;;;;;;;;;;;;;;19.35;29.13;100417.03;4989771;28;20028;-76
2023/05/14 10:27:16;;;;;;;;;;;;;;;19.36;29.08;100415.91;4982292;28;19932;-75
2023/05/14 10:29:49;;;;;;;;;;;;;;;19.47;29.46;100427.50;4989949;28;20036;-76
2023/05/14 10:32:15;;;;;;;;;;;;;;;19.47;29.50;100420.03;4987402;28;19929;-76
2023/05/14 10:34:44;;;;;;;;;;;;;;;19.60;29.77;100426.59;4990440;28;19926;-76
2023/05/14 10:37:11;;;;;;;;;;;;;;;19.69;29.82;100421.06;4988453;28;19925;-76
2023/05/14 10:39:41;;;;;;;;;;;;;;;19.63;30.05;100400.97;4983760;28;19925;-74
2023/05/14 10:42:07;;;;;;;;;;;;;;;19.41;29.82;100408.25;4973245;28;20528;-75
2023/05/14 10:44:35;;;;;;;;;;;;;;;19.27;29.77;100415.84;4988439;28;19941;-76
2023/05/14 10:47:02;;;;;;;;;;;;;;;19.15;29.48;100415.63;4994214;28;19925;-75
2023/05/14 10:49:28;;;;;;;;;;;;;;;19.10;29.99;100417.41;4998960;28;20029;-75
2023/05/14 10:51:55;;;;;;;;;;;;;;;19.15;30.15;100415.63;4977151;28;20020;-75
2023/05/14 10:54:22;;;;;;;;;;;;;;;19.28;29.91;100409.19;4992765;28;19932;-75
2023/05/14 10:56:48;;;;;;;;;;;;;;;19.45;29.93;100415.94;5000327;28;20389;-77
2023/05/14 10:59:16;;;;;;;;;;;;;;;19.51;29.75;100409.91;4968480;28;20040;-76
2023/05/14 11:01:44;;;;;;;;;;;;;;;19.42;29.79;100415.44;4969125;28;19961;-76
2023/05/14 11:04:18;;;;;;;;;;;;;;;19.38;29.84;100408.91;5013608;28;20458;-75
2023/05/14 11:06:45;;;;;;;;;;;;;;;19.50;30.10;100407.47;4984090;28;19936;-75
2023/05/14 11:09:11;;;;;;;;;;;;;;;19.50;29.73;100411.06;4981977;28;19976;-76
2023/05/14 11:11:37;;;;;;;;;;;;;;;19.58;29.58;100408.63;4985033;28;19933;-76
2023/05/14 11:14:03;;;;;;;;;;;;;;;19.68;29.74;100409.19;4968082;28;19930;-76
2023/05/14 11:16:30;;;;;;;;;;;;;;;19.55;29.78;100410.91;4975246;28;19926;-76
2023/05/14 11:19:01;;;;;;;;;;;;;;;19.72;29.83;100409.31;4983902;28;20021;-76
2023/05/14 11:21:29;;;;;;;;;;;;;;;19.76;29.76;100412.28;4983954;28;19926;-77
2023/05/14 11:23:55;;;;;;;;;;;;;;;20.05;29.58;100416.47;4977878;28;20304;-77
2023/05/14 11:26:22;;;;;;;;;;;;;;;20.03;29.52;100410.41;4981847;28;20083;-76
2023/05/14 11:28:48;;;;;;;;;;;;;;;19.92;29.78;100407.94;4970045;28;20412;-76
2023/05/14 11:31:14;;;;;;;;;;;;;;;19.84;29.92;100408.72;4966164;28;19933;-74
2023/05/14 11:33:40;;;;;;;;;;;;;;;19.72;29.65;100403.78;4983318;28;19944;-75
2023/05/14 11:36:07;;;;;;;;;;;;;;;19.68;29.81;100411.94;4982928;28;19980;-76
2023/05/14 11:38:44;;;;;;;;;;;;;;;19.86;29.74;100400.88;4991846;28;19929;-75
2023/05/14 11:41:13;;;;;;;;;;;;;;;20.22;29.26;100410.13;4971577;28;20409;-74
2023/05/14 11:43:39;;;;;;;;;;;;;;;20.43;28.80;100409.47;4984850;28;20029;-74
2023/05/14 11:46:06;;;;;;;;;;;;;;;20.42;28.58;100403.06;4968341;28;19932;-75
2023/05/14 11:48:32;;;;;;;;;;;;;;;20.46;28.97;100400.47;4953044;28;19948;-74
2023/05/14 11:50:57;;;;;;;;;;;;;;;20.43;28.95;100401.94;4989157;28;20315;-76
2023/05/14 11:53:25;;;;;;;;;;;;;;;20.53;29.03;100403.59;4991206;28;20033;-75
2023/05/14 11:55:53;;;;;;;;;;;;;;;20.51;28.93;100403.06;4991612;28;19929;-76
2023/05/14 11:58:19;;;;;;;;;;;;;;;20.48;29.15;100403.72;4989688;28;20444;-75
2023/05/14 12:00:48;;;;;;;;;;;;;;;20.33;29.56;100402.28;4989338;28;19926;-75
2023/05/14 12:03:14;;;;;;;;;;;;;;;20.39;29.67;100392.63;4982784;28;19930;-75
2023/05/14 12:05:41;;;;;;;;;;;;;;;;;;4988723;28;19996;-76
2023/05/14 12:08:21;;;;;;;;;;;;;;;20.11;29.97;100407.66;4999517;28;20284;-75
2023/05/14 12:10:46;;;;;;;;;;;;;;;20.10;30.06;100399.63;4995859;28;19926;-74
2023/05/14 12:13:16;;;;;;;;;;;;;;;19.89;30.19;100399.41;5002812;28;19940;-75
2023/05/14 12:15:43;;;;;;;;;;;;;;;19.61;30.21;100400.50;4984938;28;19910;-77
2023/05/14 12:18:10;;;;;;;;;;;;;;;19.48;30.50;100407.78;5005135;28;20040;-75
2023/05/14 12:20:36;;;;;;;;;;;;;;;19.48;30.53;100402.25;5012559;28;20424;-76
2023/05/14 12:23:01;;;;;;;;;;;;;;;19.70;30.36;100398.56;5002429;28;19925;-76
2023/05/14 12:25:28;;;;;;;;;;;;;;;19.65;30.61;100397.91;4998314;28;20238;-75
2023/05/14 12:27:53;;;;;;;;;;;;;;;19.44;30.84;100400.44;4989304;28;19929;-72
2023/05/14 12:30:21;;;;;;;;;;;;;;;19.15;31.01;100402.59;4986803;28;19937;-71
2023/05/14 12:32:51;;;;;;;;;;;;;;;18.83;31.56;100398.97;4992128;28;20053;-73
2023/05/14 12:35:17;;;;;;;;;;;;;;;18.62;32.03;100395.91;4988154;28;19925;-72